createdAt,value
2019-01-17T00:02:05.712Z,22.40
2019-01-17T00:04:53.691Z,22.30
2019-01-17T00:07:40.427Z,22.70
2019-01-17T00:10:34.366Z,22.90
2019-01-17T00:13:34.636Z,22.90
2019-01-17T00:16:21.997Z,22.10
2019-01-17T00:19:08.896Z,22.50
2019-01-17T00:21:55.640Z,22.50
2019-01-17T00:24:42.732Z,22.40
2019-01-17T00:27:30.800Z,23.40
2019-01-17T00:30:27.904Z,22.80
2019-01-17T00:33:28.350Z,22.90
2019-01-17T00:36:10.252Z,23.00
2019-01-17T00:38:58.188Z,23.20
2019-01-17T00:41:40.107Z,23.20
2019-01-17T00:44:40.112Z,23.20
2019-01-17T00:47:37.147Z,23.40
2019-01-17T00:50:25.512Z,23.50
2019-01-17T00:53:16.568Z,23.80
2019-01-17T00:56:10.572Z,24.00
2019-01-17T00:59:00.172Z,24.20
2019-01-17T01:01:44.218Z,24.20
2019-01-17T01:04:30.827Z,24.40
2019-01-17T01:07:08.927Z,24.60
2019-01-17T01:09:49.071Z,24.70
2019-01-17T01:12:36.642Z,24.90
2019-01-17T01:15:29.273Z,25.10
2019-01-17T01:18:15.727Z,25.20
2019-01-17T01:21:12.764Z,25.20
2019-01-17T01:23:52.688Z,25.30
2019-01-17T01:26:41.716Z,25.30
2019-01-17T01:29:35.791Z,25.70
2019-01-17T01:32:38.956Z,26.00
2019-01-17T01:35:39.592Z,25.80
2019-01-17T01:38:31.468Z,26.00
2019-01-17T01:41:22.435Z,26.10
2019-01-17T01:44:06.824Z,26.30
2019-01-17T01:46:48.004Z,26.70
2019-01-17T01:49:45.116Z,26.80
2019-01-17T01:52:38.907Z,26.80
2019-01-17T01:55:07.944Z,27.40
2019-01-17T01:57:36.727Z,27.50
2019-01-17T02:00:07.270Z,27.50
2019-01-17T02:02:36.196Z,27.60
2019-01-17T02:05:05.796Z,27.90
2019-01-17T02:07:34.774Z,28.00
2019-01-17T02:10:04.619Z,28.20
2019-01-17T02:12:33.498Z,28.20
2019-01-17T02:15:02.530Z,28.40
2019-01-17T02:17:31.400Z,28.60
2019-01-17T02:20:00.856Z,28.90
2019-01-17T02:22:29.835Z,28.90
2019-01-17T02:24:58.768Z,29.10
2019-01-17T02:27:28.090Z,29.10
2019-01-17T02:29:57.052Z,29.20
2019-01-17T02:32:26.048Z,29.40
2019-01-17T02:34:55.017Z,29.40
2019-01-17T02:37:30.125Z,29.40
2019-01-17T02:39:59.047Z,29.80
2019-01-17T02:42:27.998Z,29.70
2019-01-17T02:44:56.900Z,30.10
2019-01-17T02:47:25.715Z,30.30
2019-01-17T02:49:54.620Z,30.30
2019-01-17T02:52:23.565Z,30.40
2019-01-17T02:54:52.919Z,30.40
2019-01-17T02:57:21.814Z,30.40
2019-01-17T02:59:50.602Z,30.50
2019-01-17T03:02:19.481Z,30.40
2019-01-17T03:04:48.542Z,31.00
2019-01-17T03:07:17.534Z,31.00
2019-01-17T03:09:46.446Z,31.00
2019-01-17T03:12:15.711Z,31.00
2019-01-17T03:14:44.713Z,31.50
2019-01-17T03:17:13.696Z,31.50
2019-01-17T03:19:42.896Z,31.30
2019-01-17T03:22:11.745Z,31.60
2019-01-17T03:24:43.109Z,32.10
2019-01-17T03:27:11.740Z,32.30
2019-01-17T03:29:40.923Z,32.40
2019-01-17T03:32:09.763Z,32.50
2019-01-17T03:34:38.713Z,32.50
2019-01-17T03:37:07.700Z,32.80
2019-01-17T03:39:36.652Z,33.00
2019-01-17T03:42:05.642Z,33.50
2019-01-17T03:44:34.432Z,34.00
2019-01-17T03:47:03.301Z,34.30
2019-01-17T03:49:32.217Z,34.30
2019-01-17T03:52:01.116Z,34.30
2019-01-17T03:54:30.072Z,34.30
2019-01-17T03:56:59.080Z,34.40
2019-01-17T03:59:27.988Z,34.30
2019-01-17T04:01:57.258Z,34.50
2019-01-17T04:04:26.294Z,34.30
2019-01-17T04:06:55.204Z,34.50
2019-01-17T04:09:24.055Z,34.60
2019-01-17T04:11:53.473Z,34.20
2019-01-17T04:14:22.373Z,34.40
2019-01-17T04:16:51.267Z,34.90
2019-01-17T04:19:20.079Z,35.10
2019-01-17T04:21:48.876Z,35.10
2019-01-17T04:24:17.664Z,35.10
2019-01-17T04:26:47.408Z,35.10
2019-01-17T04:29:16.316Z,35.40
2019-01-17T04:31:45.304Z,35.70
2019-01-17T04:34:14.324Z,35.80
2019-01-17T04:36:43.292Z,36.30
2019-01-17T04:39:12.448Z,36.60
2019-01-17T04:41:41.400Z,37.20
2019-01-17T04:44:10.288Z,37.50
2019-01-17T04:46:39.060Z,37.70
2019-01-17T04:49:07.963Z,38.20
2019-01-17T04:51:36.757Z,38.60
2019-01-17T04:54:05.748Z,39.10
2019-01-17T04:56:34.728Z,39.70
2019-01-17T04:59:03.703Z,39.70
2019-01-17T05:01:32.665Z,40.20
2019-01-17T05:04:01.685Z,41.00
2019-01-17T05:06:30.905Z,42.10
2019-01-17T05:08:59.709Z,42.30
2019-01-17T05:11:28.484Z,42.70
2019-01-17T05:13:57.453Z,43.00
2019-01-17T05:16:26.448Z,44.10
2019-01-17T05:18:55.326Z,44.20
2019-01-17T05:21:24.221Z,44.40
2019-01-17T05:23:53.388Z,44.10
2019-01-17T05:26:22.567Z,44.90
2019-01-17T05:28:51.484Z,45.70
2019-01-17T05:31:20.261Z,46.30
2019-01-17T05:33:49.572Z,46.70
2019-01-17T05:36:18.556Z,47.00
2019-01-17T05:38:47.540Z,47.50
2019-01-17T05:41:16.408Z,47.30
2019-01-17T05:43:45.463Z,47.70
2019-01-17T05:46:14.362Z,48.50
2019-01-17T05:48:43.248Z,48.50
2019-01-17T05:51:12.236Z,48.90
2019-01-17T05:53:41.148Z,49.20
2019-01-17T05:56:10.204Z,50.00
2019-01-17T05:58:39.196Z,50.20
2019-01-17T06:01:08.428Z,50.40
2019-01-17T06:03:37.421Z,51.90
2019-01-17T06:06:06.424Z,52.80
2019-01-17T06:08:35.258Z,52.70
2019-01-17T06:11:04.201Z,53.70
2019-01-17T06:13:33.191Z,53.20
2019-01-17T06:16:02.763Z,54.00
2019-01-17T06:18:31.728Z,54.30
2019-01-17T06:21:00.668Z,54.30
2019-01-17T06:23:29.631Z,54.80
2019-01-17T06:25:58.764Z,55.70
2019-01-17T06:28:27.756Z,56.10
2019-01-17T06:30:56.637Z,56.10
2019-01-17T06:33:25.640Z,56.00
2019-01-17T06:35:54.437Z,55.60
2019-01-17T06:38:23.596Z,56.20
2019-01-17T06:40:52.713Z,56.00
2019-01-17T06:43:21.496Z,56.80
2019-01-17T06:45:50.460Z,56.30
2019-01-17T06:48:19.400Z,55.60
2019-01-17T06:50:48.274Z,56.50
2019-01-17T06:53:17.124Z,56.10
2019-01-17T06:55:46.096Z,56.00
2019-01-17T06:58:15.245Z,55.40
2019-01-17T07:00:44.156Z,55.20
2019-01-17T07:03:13.028Z,54.30
2019-01-17T07:05:41.924Z,55.50
2019-01-17T07:08:10.976Z,54.90
2019-01-17T07:10:39.956Z,54.10
2019-01-17T07:13:08.908Z,54.40
2019-01-17T07:15:37.804Z,53.40
2019-01-17T07:18:06.714Z,54.20
2019-01-17T07:20:35.677Z,54.60
2019-01-17T07:23:04.865Z,54.30
2019-01-17T07:25:33.735Z,54.40
2019-01-17T07:28:02.529Z,54.00
2019-01-17T07:30:31.505Z,54.30
2019-01-17T07:33:00.356Z,53.80
2019-01-17T07:35:29.254Z,54.70
2019-01-17T07:37:58.308Z,54.50
2019-01-17T07:40:27.121Z,54.10
2019-01-17T07:42:56.116Z,54.90
2019-01-17T07:45:29.504Z,55.00
2019-01-17T07:47:58.659Z,54.90
2019-01-17T07:50:27.561Z,54.80
2019-01-17T07:52:56.500Z,54.70
2019-01-17T07:55:25.320Z,55.00
2019-01-17T07:57:54.095Z,54.70
2019-01-17T08:00:23.647Z,55.20
2019-01-17T08:02:52.701Z,55.00
2019-01-17T08:05:21.648Z,54.50
2019-01-17T08:07:50.889Z,54.10
2019-01-17T08:10:20.447Z,53.90
2019-01-17T08:12:49.488Z,53.60
2019-01-17T08:15:18.861Z,53.90
2019-01-17T08:17:47.817Z,55.90
2019-01-17T08:20:19.270Z,53.80
2019-01-17T08:22:48.256Z,53.60
2019-01-17T08:25:17.243Z,53.10
2019-01-17T08:27:46.292Z,53.00
2019-01-17T08:30:17.488Z,52.10
2019-01-17T08:32:46.491Z,51.70
2019-01-17T08:35:16.632Z,51.50
2019-01-17T08:37:45.593Z,50.50
2019-01-17T08:40:20.646Z,50.50
2019-01-17T08:42:49.938Z,50.30
2019-01-17T08:45:18.919Z,50.50
2019-01-17T08:47:47.918Z,50.10
2019-01-17T08:50:16.944Z,49.70
2019-01-17T08:52:45.820Z,49.50
2019-01-17T08:55:14.756Z,49.00
2019-01-17T08:57:44.051Z,48.70
2019-01-17T09:00:18.076Z,47.20
2019-01-17T09:02:47.182Z,46.60
2019-01-17T09:05:16.180Z,46.50
2019-01-17T09:07:45.436Z,46.10
2019-01-17T09:10:17.486Z,46.20
2019-01-17T09:12:46.368Z,45.30
2019-01-17T09:15:16.752Z,45.80
2019-01-17T09:17:45.719Z,46.00
2019-01-17T09:20:14.916Z,45.90
2019-01-17T09:22:44.209Z,46.10
2019-01-17T09:25:14.388Z,46.20
2019-01-17T09:27:43.249Z,46.80
2019-01-17T09:30:14.711Z,48.00
2019-01-17T09:32:43.669Z,47.10
2019-01-17T09:35:13.368Z,46.90
2019-01-17T09:37:42.663Z,46.80
2019-01-17T09:40:14.502Z,47.00
2019-01-17T09:42:43.877Z,47.10
2019-01-17T09:45:12.980Z,46.30
2019-01-17T09:47:41.950Z,46.00
2019-01-17T09:50:14.401Z,45.80
2019-01-17T09:52:43.409Z,43.20
2019-01-17T09:55:12.390Z,41.20
2019-01-17T09:57:41.684Z,40.90
2019-01-17T10:00:22.384Z,41.20
2019-01-17T10:02:51.337Z,41.10
2019-01-17T10:05:20.187Z,39.70
2019-01-17T10:07:50.484Z,40.00
2019-01-17T10:10:19.905Z,40.40
2019-01-17T10:12:48.879Z,41.10
2019-01-17T10:15:39.724Z,40.70
2019-01-17T10:18:48.450Z,37.80
2019-01-17T10:21:54.468Z,35.60
2019-01-17T10:25:10.236Z,34.20
2019-01-17T10:28:06.228Z,32.30
2019-01-17T10:31:02.892Z,31.20
2019-01-17T10:33:57.864Z,32.00
2019-01-17T10:37:06.416Z,29.40
2019-01-17T10:39:59.204Z,30.00
2019-01-17T10:43:00.728Z,29.20
2019-01-17T10:46:07.472Z,29.30
2019-01-17T10:49:08.471Z,29.00
2019-01-17T10:52:23.536Z,30.00
2019-01-17T10:55:24.927Z,29.00
2019-01-17T10:58:33.532Z,29.70
2019-01-17T11:01:20.021Z,29.60
2019-01-17T11:04:04.492Z,30.70
2019-01-17T11:07:12.536Z,28.80
2019-01-17T11:10:08.896Z,28.70
2019-01-17T11:13:13.265Z,27.90
2019-01-17T11:16:00.783Z,26.60
2019-01-17T11:18:49.384Z,26.80
2019-01-17T11:22:04.574Z,28.00
2019-01-17T11:25:02.366Z,25.70
2019-01-17T11:28:01.168Z,25.10
2019-01-17T11:30:44.096Z,25.50
2019-01-17T11:33:30.205Z,26.80
2019-01-17T11:36:15.164Z,26.70
2019-01-17T11:39:03.808Z,27.30
2019-01-17T11:42:08.408Z,28.20
2019-01-17T11:45:20.485Z,28.60
2019-01-17T11:47:57.608Z,28.90
2019-01-17T11:51:00.940Z,28.50
2019-01-17T11:54:10.801Z,29.20
2019-01-17T11:57:36.099Z,29.00
2019-01-17T12:00:53.944Z,29.00
2019-01-17T12:03:46.300Z,28.60
2019-01-17T12:06:15.315Z,27.50
2019-01-17T12:08:44.275Z,27.10
2019-01-17T12:11:13.164Z,27.00
2019-01-17T12:13:42.065Z,26.70
2019-01-17T12:16:10.936Z,27.80
2019-01-17T12:18:39.818Z,27.80
2019-01-17T12:21:08.690Z,25.90
2019-01-17T12:23:37.560Z,26.50
2019-01-17T12:26:10.141Z,27.30
2019-01-17T12:28:39.204Z,28.10
2019-01-17T12:31:08.607Z,27.50
2019-01-17T12:33:37.396Z,27.90
2019-01-17T12:36:06.182Z,28.60
2019-01-17T12:38:35.065Z,28.30
2019-01-17T12:41:04.256Z,28.10
2019-01-17T12:43:33.239Z,28.00
2019-01-17T12:46:02.193Z,26.90
2019-01-17T12:48:31.056Z,25.80
2019-01-17T12:50:59.964Z,27.00
2019-01-17T12:53:28.844Z,28.70
2019-01-17T12:55:57.616Z,34.00
2019-01-17T12:58:26.604Z,38.00
2019-01-17T13:00:55.884Z,37.80
2019-01-17T13:03:24.852Z,35.60
2019-01-17T13:05:53.775Z,38.70
2019-01-17T13:08:22.852Z,40.10
2019-01-17T13:10:51.731Z,42.90
2019-01-17T13:13:20.564Z,42.70
2019-01-17T13:15:49.384Z,43.20
2019-01-17T13:18:18.285Z,44.50
2019-01-17T13:20:47.540Z,44.50
2019-01-17T13:23:16.600Z,43.50
2019-01-17T13:25:45.836Z,42.10
2019-01-17T13:28:15.003Z,40.00
2019-01-17T13:30:43.868Z,36.20
2019-01-17T13:33:13.049Z,35.50
2019-01-17T13:35:42.428Z,34.30
2019-01-17T13:38:11.223Z,30.50
2019-01-17T13:40:40.151Z,29.40
2019-01-17T13:43:09.118Z,28.20
2019-01-17T13:45:38.188Z,25.60
2019-01-17T13:48:07.491Z,24.20
2019-01-17T13:50:36.255Z,23.30
2019-01-17T13:53:05.520Z,20.20
2019-01-17T13:55:34.541Z,20.40
2019-01-17T13:58:03.429Z,19.50
2019-01-17T14:00:32.437Z,19.80
2019-01-17T14:03:01.232Z,21.20
2019-01-17T14:05:30.168Z,22.80
2019-01-17T14:07:59.146Z,23.10
2019-01-17T14:10:28.160Z,26.60
2019-01-17T14:12:57.292Z,24.60
2019-01-17T14:21:05.933Z,26.20
2019-01-17T14:23:35.019Z,26.20
2019-01-17T14:26:03.968Z,26.80
2019-01-17T14:28:32.872Z,25.90
2019-01-17T14:31:02.024Z,26.70
2019-01-17T14:33:31.000Z,26.80
2019-01-17T14:35:59.852Z,28.80
2019-01-17T14:38:28.977Z,27.00
2019-01-17T14:40:58.160Z,27.00
2019-01-17T14:43:27.058Z,27.00
2019-01-17T14:45:56.036Z,27.00
2019-01-17T14:48:24.884Z,27.40
2019-01-17T14:50:54.151Z,27.90
2019-01-17T14:53:23.111Z,29.10
2019-01-17T14:55:52.448Z,30.00
2019-01-17T14:58:21.648Z,29.80
2019-01-17T15:00:50.825Z,30.30
2019-01-17T15:03:19.824Z,30.20
2019-01-17T15:05:49.155Z,31.10
2019-01-17T15:08:18.153Z,31.70
2019-01-17T15:10:47.164Z,31.70
2019-01-17T15:13:16.388Z,34.70
2019-01-17T15:15:45.428Z,38.70
2019-01-17T15:18:14.600Z,44.40
2019-01-17T15:20:43.416Z,46.40
2019-01-17T15:23:13.024Z,49.30
2019-01-17T15:25:41.944Z,52.00
2019-01-17T15:28:10.960Z,56.10
2019-01-17T15:30:41.332Z,56.80
2019-01-17T15:33:10.497Z,56.00
2019-01-17T15:35:39.588Z,57.00
2019-01-17T15:38:08.665Z,57.50
2019-01-17T15:40:37.782Z,56.30
2019-01-17T15:43:07.919Z,54.50
2019-01-17T15:45:37.969Z,54.70
2019-01-17T15:48:07.040Z,52.70
2019-01-17T15:50:36.212Z,54.40
2019-01-17T15:53:05.208Z,54.60
2019-01-17T15:55:34.200Z,53.80
2019-01-17T15:58:03.252Z,53.50
2019-01-17T16:00:33.295Z,52.10
2019-01-17T16:03:02.299Z,52.50
2019-01-17T16:05:31.096Z,46.80
2019-01-17T16:08:00.004Z,47.80
2019-01-17T16:10:28.904Z,49.50
2019-01-17T16:12:57.857Z,50.00
2019-01-17T16:15:27.888Z,48.10
2019-01-17T16:17:56.883Z,49.80
2019-01-17T16:20:25.788Z,48.10
2019-01-17T16:22:55.008Z,47.50
2019-01-17T16:25:23.988Z,47.90
2019-01-17T16:27:53.371Z,48.10
2019-01-17T16:30:24.943Z,46.80
2019-01-17T16:32:54.119Z,44.70
2019-01-17T16:35:23.279Z,45.60
2019-01-17T16:37:52.784Z,45.30
2019-01-17T16:40:21.835Z,44.30
2019-01-17T16:42:50.809Z,44.70
2019-01-17T16:45:20.535Z,44.10
2019-01-17T16:47:49.724Z,43.50
2019-01-17T16:50:21.498Z,43.10
2019-01-17T16:52:50.492Z,42.90
2019-01-17T16:55:19.822Z,43.60
2019-01-17T16:57:49.526Z,43.20
2019-01-17T17:00:39.598Z,42.00
2019-01-17T17:03:08.448Z,42.00
2019-01-17T17:05:37.519Z,40.70
2019-01-17T17:08:06.601Z,40.70
2019-01-17T17:10:35.592Z,40.60
2019-01-17T17:13:04.851Z,39.50
2019-01-17T17:15:33.854Z,39.60
2019-01-17T17:18:02.901Z,39.00
2019-01-17T17:20:31.838Z,38.50
2019-01-17T17:23:00.876Z,38.20
2019-01-17T17:25:29.929Z,38.10
2019-01-17T17:27:58.734Z,37.70
2019-01-17T17:30:28.014Z,38.40
2019-01-17T17:32:57.161Z,39.30
2019-01-17T17:35:26.427Z,39.60
2019-01-17T17:37:55.329Z,40.20
2019-01-17T17:40:26.511Z,49.90
2019-01-17T17:42:55.564Z,40.50
2019-01-17T17:45:24.868Z,42.10
2019-01-17T17:47:54.408Z,38.00
2019-01-17T17:50:24.061Z,37.90
2019-01-17T17:52:53.016Z,38.70
2019-01-17T17:55:21.928Z,39.20
2019-01-17T17:57:50.807Z,39.10
2019-01-17T18:00:35.476Z,40.30
2019-01-17T18:03:04.908Z,40.60
2019-01-17T18:05:33.996Z,41.00
2019-01-17T18:08:02.943Z,40.90
2019-01-17T18:10:31.992Z,40.60
2019-01-17T18:13:00.919Z,40.70
2019-01-17T18:15:29.744Z,40.70
2019-01-17T18:17:58.680Z,41.50
2019-01-17T18:20:27.524Z,41.70
2019-01-17T18:22:56.456Z,41.80
2019-01-17T18:25:25.434Z,41.30
2019-01-17T18:27:54.449Z,41.40
2019-01-17T18:30:23.628Z,40.20
2019-01-17T18:32:52.591Z,40.30
2019-01-17T18:35:22.786Z,39.90
2019-01-17T18:37:51.772Z,40.30
2019-01-17T18:40:20.884Z,39.80
2019-01-17T18:42:50.426Z,39.50
2019-01-17T18:45:20.620Z,38.90
2019-01-17T18:47:49.558Z,39.50
2019-01-17T18:50:20.696Z,40.10
2019-01-17T18:52:50.079Z,40.40
2019-01-17T18:55:19.036Z,40.50
2019-01-17T18:57:48.198Z,40.10
2019-01-17T19:00:24.274Z,40.50
2019-01-17T19:02:53.888Z,39.20
2019-01-17T19:05:23.505Z,37.20
2019-01-17T19:07:53.209Z,37.20
2019-01-17T19:10:25.236Z,37.30
2019-01-17T19:12:55.157Z,36.50
2019-01-17T19:15:26.896Z,36.10
2019-01-17T19:17:55.941Z,35.70
2019-01-17T19:20:25.114Z,35.90
2019-01-17T19:22:54.206Z,36.40
2019-01-17T19:25:23.153Z,36.60
2019-01-17T19:27:52.044Z,37.50
2019-01-17T19:30:23.114Z,37.90
2019-01-17T19:32:52.997Z,38.20
2019-01-17T19:35:22.487Z,38.10
2019-01-17T19:37:51.516Z,37.80
2019-01-17T19:40:22.264Z,36.70
2019-01-17T19:42:51.240Z,36.60
2019-01-17T19:45:20.592Z,35.80
2019-01-17T19:47:49.455Z,36.80
2019-01-17T19:50:39.167Z,38.10
2019-01-17T19:53:09.441Z,38.10
2019-01-17T19:55:38.362Z,37.00
2019-01-17T19:58:07.228Z,35.80
2019-01-17T20:00:36.197Z,36.60
2019-01-17T20:03:05.577Z,37.20
2019-01-17T20:05:34.836Z,37.80
2019-01-17T20:08:03.828Z,38.30
2019-01-17T20:10:35.033Z,37.50
2019-01-17T20:13:05.179Z,36.30
2019-01-17T20:15:34.436Z,35.80
2019-01-17T20:18:03.532Z,35.10
2019-01-17T20:20:33.844Z,34.10
2019-01-17T20:23:02.940Z,33.70
2019-01-17T20:25:31.842Z,32.50
2019-01-17T20:28:00.983Z,33.60
2019-01-17T20:30:32.081Z,33.00
2019-01-17T20:33:02.520Z,32.90
2019-01-17T20:35:31.491Z,33.50
2019-01-17T20:38:00.513Z,32.80
2019-01-17T20:40:29.593Z,32.50
2019-01-17T20:42:58.555Z,32.80
2019-01-17T20:45:27.524Z,32.10
2019-01-17T20:47:56.893Z,31.50
2019-01-17T20:50:28.231Z,30.60
2019-01-17T20:52:57.240Z,29.90
2019-01-17T20:55:26.120Z,29.20
2019-01-17T20:57:55.100Z,29.00
2019-01-17T21:01:05.424Z,28.40
2019-01-17T21:03:35.278Z,27.90
2019-01-17T21:06:04.292Z,27.60
2019-01-17T21:08:33.227Z,27.70
2019-01-17T21:11:02.211Z,28.20
2019-01-17T21:13:31.077Z,27.90
2019-01-17T21:16:01.333Z,27.90
2019-01-17T21:18:30.788Z,28.30
2019-01-17T21:20:59.774Z,28.70
2019-01-17T21:23:28.775Z,28.80
2019-01-17T21:25:57.649Z,28.80
2019-01-17T21:28:26.816Z,29.00
2019-01-17T21:30:55.937Z,28.50
2019-01-17T21:33:25.222Z,28.50
2019-01-17T21:35:54.493Z,28.20
2019-01-17T21:38:23.717Z,28.30
2019-01-17T21:40:52.711Z,28.10
2019-01-17T21:43:21.884Z,28.70
2019-01-17T21:45:50.653Z,28.90
2019-01-17T21:48:19.556Z,28.90
2019-01-17T21:50:48.488Z,29.10
2019-01-17T21:53:17.304Z,29.00
2019-01-17T21:55:46.203Z,29.00
2019-01-17T21:58:15.064Z,29.30
2019-01-17T22:00:43.870Z,28.90
2019-01-17T22:03:12.699Z,28.90
2019-01-17T22:05:42.607Z,29.00
2019-01-17T22:08:11.840Z,29.30
2019-01-17T22:10:40.612Z,29.40
2019-01-17T22:13:09.812Z,29.80
2019-01-17T22:15:39.831Z,30.00
2019-01-17T22:18:08.768Z,29.80
2019-01-17T22:20:37.770Z,30.00
2019-01-17T22:23:06.709Z,29.80
2019-01-17T22:25:35.508Z,30.10
2019-01-17T22:28:04.440Z,30.60
2019-01-17T22:30:33.432Z,30.50
2019-01-17T22:33:03.027Z,30.60
2019-01-17T22:35:31.992Z,30.50
2019-01-17T22:38:00.988Z,30.60
2019-01-17T22:40:29.956Z,30.60
2019-01-17T22:42:58.828Z,31.20
2019-01-17T22:45:29.604Z,31.10
2019-01-17T22:47:58.472Z,31.20
2019-01-17T22:50:27.557Z,31.10
2019-01-17T22:52:56.406Z,31.10
2019-01-17T22:55:25.279Z,30.80
2019-01-17T22:57:54.055Z,31.20
2019-01-17T23:00:50.750Z,30.50
2019-01-17T23:03:25.162Z,30.60
2019-01-17T23:05:54.063Z,30.10
2019-01-17T23:08:23.146Z,30.50
2019-01-17T23:10:52.113Z,30.70
2019-01-17T23:13:21.082Z,30.70
2019-01-17T23:15:49.920Z,30.70
2019-01-17T23:18:18.925Z,30.80
2019-01-17T23:20:47.784Z,30.80
2019-01-17T23:23:16.936Z,30.60
2019-01-17T23:25:45.723Z,30.70
2019-01-17T23:28:14.924Z,30.60
2019-01-17T23:30:43.888Z,30.60
2019-01-17T23:33:12.760Z,30.80
2019-01-17T23:35:41.644Z,30.70
2019-01-17T23:38:10.619Z,30.60
2019-01-17T23:40:39.535Z,30.60
2019-01-17T23:43:08.524Z,30.20
2019-01-17T23:45:37.524Z,30.40
2019-01-17T23:48:06.427Z,30.20
2019-01-17T23:50:35.309Z,29.90
2019-01-17T23:53:04.477Z,30.00
2019-01-17T23:55:33.464Z,29.50
2019-01-17T23:58:02.360Z,29.60
